Time;durP1;ratioP1;P1;durP2;ratioP2;P2;SDS_P1;SDS_P2;PMS_P1;PMS_P2;Temp;Humidity;BMP_temperature;BMP_pressure;BME280_temperature;BME280_humidity;BME280_pressure;Samples;Min_cycle;Max_cycle;Signal;HPM_P1;HPM_P2
2022/10/26 00:01:19;;;;;;;3.92;1.70;;;;;;;;;;5034363;28;20057;-66
2022/10/26 00:03:46;;;;;;;4.25;1.73;;;;;;;;;;5026811;28;20098;-66
2022/10/26 00:06:13;;;;;;;3.85;1.50;;;;;;;;;;5018415;28;20126;-66
2022/10/26 00:08:40;;;;;;;4.88;1.70;;;;;;;;;;5025638;28;20102;-66
2022/10/26 00:11:07;;;;;;;2.70;1.30;;;;;;;;;;5019133;28;20057;-66
2022/10/26 00:13:34;;;;;;;4.85;1.42;;;;;;;;;;5026224;28;20073;-66
2022/10/26 00:16:07;;;;;;;3.00;1.58;;;;;;;;;;5017112;28;20049;-65
2022/10/26 00:18:33;;;;;;;4.60;1.70;;;;;;;;;;5026604;28;20064;-65
2022/10/26 00:21:02;;;;;;;4.43;1.50;;;;;;;;;;5020314;28;20072;-65
2022/10/26 00:23:30;;;;;;;6.25;1.90;;;;;;;;;;5027820;28;20048;-65
2022/10/26 00:25:56;;;;;;;3.55;1.58;;;;;;;;;;5017761;28;20068;-65
2022/10/26 00:28:23;;;;;;;3.10;1.48;;;;;;;;;;5042740;28;20065;-65
2022/10/26 00:30:50;;;;;;;3.55;1.40;;;;;;;;;;5019839;28;20053;-65
2022/10/26 00:33:18;;;;;;;4.00;1.67;;;;;;;;;;5026274;28;20053;-65
2022/10/26 00:35:47;;;;;;;2.38;1.33;;;;;;;;;;5024532;28;20064;-65
2022/10/26 00:38:13;;;;;;;3.88;1.60;;;;;;;;;;5021084;28;20113;-66
2022/10/26 00:40:40;;;;;;;4.18;1.60;;;;;;;;;;5043182;28;20088;-65
2022/10/26 00:43:10;;;;;;;3.50;1.60;;;;;;;;;;5019483;28;20057;-65
2022/10/26 00:45:37;;;;;;;5.60;1.95;;;;;;;;;;5025504;28;20044;-66
2022/10/26 00:48:06;;;;;;;7.00;1.90;;;;;;;;;;5021390;28;20052;-65
2022/10/26 00:50:36;;;;;;;5.63;2.15;;;;;;;;;;5024583;28;20116;-66
2022/10/26 00:53:06;;;;;;;5.30;1.90;;;;;;;;;;5017733;28;20169;-66
2022/10/26 00:55:34;;;;;;;6.15;2.22;;;;;;;;;;5021601;28;20046;-66
2022/10/26 00:58:02;;;;;;;4.05;2.15;;;;;;;;;;5027548;28;20049;-65
2022/10/26 01:00:29;;;;;;;5.93;1.80;;;;;;;;;;5022224;28;20058;-66
2022/10/26 01:02:56;;;;;;;5.32;2.40;;;;;;;;;;5014501;28;20075;-65
2022/10/26 01:05:24;;;;;;;5.00;2.00;;;;;;;;;;5019942;28;20073;-65
2022/10/26 01:07:52;;;;;;;4.68;1.73;;;;;;;;;;5016133;28;20320;-66
2022/10/26 01:10:18;;;;;;;5.20;1.77;;;;;;;;;;5016896;28;20057;-65
2022/10/26 01:12:45;;;;;;;6.07;2.00;;;;;;;;;;5014265;28;20103;-66
2022/10/26 01:15:12;;;;;;;4.05;1.92;;;;;;;;;;5021340;28;20160;-65
2022/10/26 01:17:46;;;;;;;5.38;1.80;;;;;;;;;;5012594;28;20053;-66
2022/10/26 01:20:43;;;;;;;4.78;1.95;;;;;;;;;;5022423;28;20065;-65
2022/10/26 01:23:16;;;;;;;6.72;1.63;;;;;;;;;;5015647;28;20069;-66
2022/10/26 01:25:53;;;;;;;4.55;1.90;;;;;;;;;;5038942;28;20053;-66
2022/10/26 01:28:27;;;;;;;3.83;1.65;;;;;;;;;;5014261;28;20068;-65
2022/10/26 01:30:56;;;;;;;5.30;2.08;;;;;;;;;;5022007;28;20050;-65
2022/10/26 01:33:29;;;;;;;5.63;2.10;;;;;;;;;;5016629;28;20058;-65
2022/10/26 01:36:02;;;;;;;5.70;2.17;;;;;;;;;;5021939;28;20068;-65
2022/10/26 01:38:31;;;;;;;3.97;1.75;;;;;;;;;;5015808;28;20076;-66
2022/10/26 01:41:03;;;;;;;7.72;2.10;;;;;;;;;;5020251;28;20085;-66
2022/10/26 01:43:32;;;;;;;4.43;1.85;;;;;;;;;;5017790;28;20061;-66
2022/10/26 01:46:00;;;;;;;6.20;2.08;;;;;;;;;;5021222;28;20054;-66
2022/10/26 01:48:27;;;;;;;;;;;;;;;;;;5022800;28;20053;-66
2022/10/26 01:50:54;;;;;;;6.20;1.92;;;;;;;;;;5015944;28;19984;-66
2022/10/26 01:53:21;;;;;;;8.07;2.25;;;;;;;;;;5020109;28;20099;-65
2022/10/26 01:55:48;;;;;;;6.63;2.15;;;;;;;;;;5019200;28;20053;-66
2022/10/26 01:58:29;;;;;;;5.43;2.25;;;;;;;;;;5024822;28;20053;-66
2022/10/26 02:00:59;;;;;;;9.30;2.13;;;;;;;;;;5018732;28;20105;-66
2022/10/26 02:03:33;;;;;;;5.00;1.80;;;;;;;;;;5028262;28;20464;-65
2022/10/26 02:06:06;;;;;;;7.20;2.63;;;;;;;;;;5014765;28;20061;-66
2022/10/26 02:08:54;;;;;;;7.78;2.30;;;;;;;;;;5024518;28;20147;-66
2022/10/26 02:11:25;;;;;;;7.63;2.40;;;;;;;;;;5026186;28;20183;-66
2022/10/26 02:13:55;;;;;;;6.03;2.05;;;;;;;;;;5031486;28;20053;-66
2022/10/26 02:16:24;;;;;;;4.72;2.20;;;;;;;;;;5022486;28;20049;-66
2022/10/26 02:18:55;;;;;;;5.10;1.98;;;;;;;;;;5028116;28;20168;-66
2022/10/26 02:21:24;;;;;;;3.92;1.95;;;;;;;;;;5025601;28;20053;-66
2022/10/26 02:23:52;;;;;;;5.03;2.38;;;;;;;;;;5031106;28;20053;-66
2022/10/26 02:26:22;;;;;;;3.60;1.77;;;;;;;;;;5025089;28;20080;-66
2022/10/26 02:28:50;;;;;;;3.85;2.00;;;;;;;;;;5048331;28;20057;-66
2022/10/26 02:31:18;;;;;;;5.78;2.35;;;;;;;;;;5026014;28;20104;-66
2022/10/26 02:33:46;;;;;;;5.93;2.00;;;;;;;;;;5031766;28;20057;-66
2022/10/26 02:36:16;;;;;;;5.67;2.10;;;;;;;;;;5025962;28;20053;-66
2022/10/26 02:38:44;;;;;;;6.57;1.90;;;;;;;;;;5030817;28;20068;-66
2022/10/26 02:41:12;;;;;;;3.72;1.65;;;;;;;;;;5025428;28;20045;-66
2022/10/26 02:43:41;;;;;;;5.25;2.00;;;;;;;;;;5030910;28;20056;-66
2022/10/26 02:46:09;;;;;;;4.68;2.10;;;;;;;;;;5026060;28;20053;-66
2022/10/26 02:48:36;;;;;;;4.60;1.98;;;;;;;;;;5030894;28;20053;-65
2022/10/26 02:51:07;;;;;;;4.65;1.92;;;;;;;;;;5031171;28;20068;-65
2022/10/26 02:53:39;;;;;;;6.38;2.05;;;;;;;;;;5029944;28;20063;-66
2022/10/26 02:56:08;;;;;;;3.75;1.67;;;;;;;;;;5045116;28;20056;-65
2022/10/26 02:58:34;;;;;;;;;;;;;;;;;;5040950;28;20052;-65
2022/10/26 03:01:01;;;;;;;3.45;1.73;;;;;;;;;;5048160;28;19925;-65
2022/10/26 03:03:34;;;;;;;7.22;1.90;;;;;;;;;;5041873;28;20060;-64
2022/10/26 03:06:01;;;;;;;6.45;1.98;;;;;;;;;;5045330;28;20049;-66
2022/10/26 03:08:28;;;;;;;5.60;2.03;;;;;;;;;;5031238;28;20065;-65
2022/10/26 03:10:56;;;;;;;4.70;1.70;;;;;;;;;;5030564;28;20053;-66
2022/10/26 03:13:23;;;;;;;5.40;2.30;;;;;;;;;;5015316;28;20115;-65
2022/10/26 03:15:49;;;;;;;6.63;1.90;;;;;;;;;;5030764;28;20068;-65
2022/10/26 03:18:16;;;;;;;5.00;2.30;;;;;;;;;;5030561;28;20166;-66
2022/10/26 03:20:44;;;;;;;5.15;2.20;;;;;;;;;;5067281;28;20064;-66
2022/10/26 03:23:11;;;;;;;4.65;2.10;;;;;;;;;;5053565;28;20048;-65
2022/10/26 03:25:37;;;;;;;6.70;2.35;;;;;;;;;;5047379;28;20052;-65
2022/10/26 03:28:06;;;;;;;6.38;2.13;;;;;;;;;;5040060;28;20049;-66
2022/10/26 03:30:33;;;;;;;2.78;1.40;;;;;;;;;;5047261;28;20067;-65
2022/10/26 03:32:59;;;;;;;5.45;2.10;;;;;;;;;;5040178;28;20068;-65
2022/10/26 03:35:26;;;;;;;4.70;1.80;;;;;;;;;;5030646;28;20072;-66
2022/10/26 03:37:53;;;;;;;8.27;2.20;;;;;;;;;;5030190;28;20049;-66
2022/10/26 03:40:20;;;;;;;3.90;1.98;;;;;;;;;;5015415;28;20057;-65
2022/10/26 03:42:46;;;;;;;3.75;1.75;;;;;;;;;;5027111;28;20060;-65
2022/10/26 03:45:14;;;;;;;11.45;2.30;;;;;;;;;;5038219;28;20045;-65
2022/10/26 03:47:44;;;;;;;7.30;2.28;;;;;;;;;;5046857;28;20059;-65
2022/10/26 03:50:14;;;;;;;8.23;2.25;;;;;;;;;;5043754;28;20044;-65
2022/10/26 03:52:41;;;;;;;7.65;2.20;;;;;;;;;;5066694;28;20056;-65
2022/10/26 03:55:08;;;;;;;5.53;2.05;;;;;;;;;;5047879;28;20057;-65
2022/10/26 03:57:34;;;;;;;9.75;2.63;;;;;;;;;;5029873;28;20064;-65
2022/10/26 04:00:02;;;;;;;5.32;1.88;;;;;;;;;;5023421;28;20138;-66
2022/10/26 04:02:30;;;;;;;7.15;2.05;;;;;;;;;;5029727;28;20057;-65
2022/10/26 04:04:57;;;;;;;5.68;2.33;;;;;;;;;;5021591;28;20067;-65
2022/10/26 04:07:24;;;;;;;5.70;2.05;;;;;;;;;;5029928;28;20132;-65
2022/10/26 04:09:50;;;;;;;4.95;1.88;;;;;;;;;;5023690;28;20065;-65
2022/10/26 04:12:17;;;;;;;7.55;2.22;;;;;;;;;;5029477;28;20141;-66
2022/10/26 04:14:44;;;;;;;8.77;2.20;;;;;;;;;;5023814;28;20053;-66
2022/10/26 04:17:10;;;;;;;5.78;1.67;;;;;;;;;;5029073;28;20056;-65
2022/10/26 04:19:38;;;;;;;5.68;2.30;;;;;;;;;;5023559;28;20126;-65
2022/10/26 04:22:05;;;;;;;6.20;2.10;;;;;;;;;;5029421;28;20057;-66
2022/10/26 04:24:31;;;;;;;7.03;2.40;;;;;;;;;;5029058;28;20045;-66
2022/10/26 04:26:58;;;;;;;6.05;1.98;;;;;;;;;;5023310;28;20064;-65
2022/10/26 04:29:24;;;;;;;6.88;2.47;;;;;;;;;;5029568;28;20426;-65
2022/10/26 04:31:51;;;;;;;6.47;2.20;;;;;;;;;;5039201;28;20067;-65
2022/10/26 04:34:18;;;;;;;4.32;1.98;;;;;;;;;;5049363;28;20071;-66
2022/10/26 04:36:45;;;;;;;10.38;2.78;;;;;;;;;;5029429;28;20056;-65
2022/10/26 04:39:12;;;;;;;6.93;2.17;;;;;;;;;;5028199;28;20124;-65
2022/10/26 04:41:38;;;;;;;4.63;2.00;;;;;;;;;;5023799;28;20045;-65
2022/10/26 04:44:05;;;;;;;7.13;1.95;;;;;;;;;;5029305;28;20095;-65
2022/10/26 04:46:31;;;;;;;6.03;2.15;;;;;;;;;;5024005;28;20073;-65
2022/10/26 04:48:58;;;;;;;5.35;2.28;;;;;;;;;;5028833;28;20106;-65
2022/10/26 04:51:24;;;;;;;8.85;2.38;;;;;;;;;;5027930;28;20049;-65
2022/10/26 04:53:54;;;;;;;5.40;2.45;;;;;;;;;;5048715;28;20143;-66
2022/10/26 04:56:21;;;;;;;6.13;1.92;;;;;;;;;;5037456;28;20110;-65
2022/10/26 04:58:47;;;;;;;7.88;2.40;;;;;;;;;;5025942;28;20102;-65
2022/10/26 05:01:14;;;;;;;6.90;2.60;;;;;;;;;;5018057;28;20103;-65
2022/10/26 05:03:41;;;;;;;6.90;2.78;;;;;;;;;;5025665;28;20064;-65
2022/10/26 05:06:07;;;;;;;5.78;2.05;;;;;;;;;;5022428;28;20140;-65
2022/10/26 05:08:34;;;;;;;9.95;2.08;;;;;;;;;;5020951;28;20053;-65
2022/10/26 05:11:02;;;;;;;6.00;2.25;;;;;;;;;;5025935;28;20049;-65
2022/10/26 05:13:28;;;;;;;7.18;2.25;;;;;;;;;;5018615;28;20049;-65
2022/10/26 05:15:55;;;;;;;5.50;2.28;;;;;;;;;;5024652;28;20061;-65
2022/10/26 05:18:21;;;;;;;8.90;2.70;;;;;;;;;;5019350;28;20059;-65
2022/10/26 05:20:49;;;;;;;5.25;1.92;;;;;;;;;;5026442;28;20114;-65
2022/10/26 05:23:17;;;;;;;7.22;2.35;;;;;;;;;;5019904;28;20075;-65
2022/10/26 05:25:43;;;;;;;5.95;2.20;;;;;;;;;;5025734;28;20057;-65
2022/10/26 05:28:13;;;;;;;5.57;2.10;;;;;;;;;;5029769;28;20064;-65
2022/10/26 05:30:39;;;;;;;5.68;2.25;;;;;;;;;;5025129;28;20053;-66
2022/10/26 05:33:06;;;;;;;5.45;1.90;;;;;;;;;;5019492;28;20040;-66
2022/10/26 05:35:33;;;;;;;7.05;2.33;;;;;;;;;;5027143;28;20053;-65
2022/10/26 05:38:00;;;;;;;6.57;2.35;;;;;;;;;;5040034;28;20079;-65
2022/10/26 05:40:29;;;;;;;7.30;2.72;;;;;;;;;;5047714;28;20052;-65
2022/10/26 05:42:59;;;;;;;6.07;2.22;;;;;;;;;;5056470;28;20067;-65
2022/10/26 05:45:30;;;;;;;5.75;2.00;;;;;;;;;;5027820;28;20096;-65
2022/10/26 05:47:56;;;;;;;5.68;2.35;;;;;;;;;;5026592;28;20048;-66
2022/10/26 05:50:23;;;;;;;6.25;2.20;;;;;;;;;;5025464;28;20103;-65
2022/10/26 05:52:50;;;;;;;8.20;2.42;;;;;;;;;;5027697;28;20071;-65
2022/10/26 05:55:18;;;;;;;5.90;2.58;;;;;;;;;;5020168;28;20058;-66
2022/10/26 05:57:44;;;;;;;6.03;2.40;;;;;;;;;;5027689;28;20049;-66
2022/10/26 06:00:15;;;;;;;7.57;2.03;;;;;;;;;;5018482;28;20312;-65
2022/10/26 06:02:46;;;;;;;6.82;2.47;;;;;;;;;;5024217;28;20060;-65
2022/10/26 06:05:16;;;;;;;4.43;1.95;;;;;;;;;;5030129;28;20091;-65
2022/10/26 06:07:43;;;;;;;4.82;1.90;;;;;;;;;;5025480;28;20045;-65
2022/10/26 06:10:10;;;;;;;7.15;2.33;;;;;;;;;;5021979;28;20103;-65
2022/10/26 06:12:37;;;;;;;7.57;2.47;;;;;;;;;;5025479;28;20053;-65
2022/10/26 06:15:04;;;;;;;3.03;1.63;;;;;;;;;;5011758;28;20046;-65
2022/10/26 06:17:37;;;;;;;6.43;2.03;;;;;;;;;;5027114;28;20094;-66
2022/10/26 06:20:20;;;;;;;7.00;2.20;;;;;;;;;;5021447;28;20060;-66
2022/10/26 06:22:53;;;;;;;4.40;1.92;;;;;;;;;;5025615;28;20045;-65
2022/10/26 06:25:24;;;;;;;4.80;1.95;;;;;;;;;;5021487;28;20049;-65
2022/10/26 06:27:56;;;;;;;3.63;1.92;;;;;;;;;;5007699;28;20065;-65
2022/10/26 06:30:23;;;;;;;4.78;1.98;;;;;;;;;;5008090;28;20049;-66
2022/10/26 06:32:52;;;;;;;4.85;2.00;;;;;;;;;;5027490;28;20047;-68
2022/10/26 06:35:28;;;;;;;;;;;;;;;;;;5018574;28;20140;-68
2022/10/26 06:37:57;;;;;;;3.50;1.38;;;;;;;;;;5023033;28;20031;-68
2022/10/26 06:40:24;;;;;;;4.38;1.60;;;;;;;;;;5020989;28;20052;-67
2022/10/26 06:42:51;;;;;;;5.18;1.60;;;;;;;;;;5027687;28;20045;-68
2022/10/26 06:45:19;;;;;;;5.88;2.28;;;;;;;;;;5021889;28;20060;-68
2022/10/26 06:47:49;;;;;;;5.07;1.90;;;;;;;;;;5007842;28;20119;-68
2022/10/26 06:50:24;;;;;;;6.78;2.17;;;;;;;;;;5008056;28;20049;-67
2022/10/26 06:52:55;;;;;;;5.72;1.92;;;;;;;;;;5025781;28;20083;-67
2022/10/26 06:55:27;;;;;;;5.82;1.90;;;;;;;;;;5027083;28;20111;-67
2022/10/26 06:57:54;;;;;;;7.03;1.90;;;;;;;;;;5024151;28;20052;-67
2022/10/26 07:00:22;;;;;;;10.25;2.55;;;;;;;;;;5031042;28;20136;-67
2022/10/26 07:02:49;;;;;;;4.97;1.93;;;;;;;;;;5025004;28;20056;-67
2022/10/26 07:05:17;;;;;;;4.28;1.80;;;;;;;;;;5028491;28;20056;-67
2022/10/26 07:07:44;;;;;;;6.37;2.13;;;;;;;;;;5011131;28;20131;-68
2022/10/26 07:10:12;;;;;;;4.22;1.88;;;;;;;;;;5023373;28;20068;-68
2022/10/26 07:12:39;;;;;;;6.45;1.98;;;;;;;;;;5022171;28;20041;-67
2022/10/26 07:15:07;;;;;;;4.37;1.60;;;;;;;;;;5047095;28;20086;-67
2022/10/26 07:17:42;;;;;;;6.88;1.95;;;;;;;;;;5015964;28;20052;-68
2022/10/26 07:20:09;;;;;;;5.07;2.10;;;;;;;;;;5030487;28;20175;-67
2022/10/26 07:22:36;;;;;;;7.43;1.88;;;;;;;;;;5016128;28;20056;-67
2022/10/26 07:25:04;;;;;;;5.22;2.30;;;;;;;;;;5010548;28;20134;-67
2022/10/26 07:27:30;;;;;;;9.27;1.83;;;;;;;;;;5010430;28;20041;-68
2022/10/26 07:29:58;;;;;;;5.53;2.22;;;;;;;;;;5030023;28;20080;-68
2022/10/26 07:32:25;;;;;;;7.93;1.75;;;;;;;;;;5023767;28;20049;-67
2022/10/26 07:34:51;;;;;;;3.72;1.80;;;;;;;;;;5029774;28;20053;-68
2022/10/26 07:37:18;;;;;;;5.22;2.15;;;;;;;;;;5022732;28;20065;-66
2022/10/26 07:39:45;;;;;;;6.90;1.77;;;;;;;;;;5010038;28;20052;-65
2022/10/26 07:42:12;;;;;;;4.80;1.60;;;;;;;;;;5009595;28;20052;-65
2022/10/26 07:44:39;;;;;;;2.53;1.38;;;;;;;;;;5021828;28;20048;-65
2022/10/26 07:47:07;;;;;;;4.38;1.70;;;;;;;;;;5029167;28;20056;-66
2022/10/26 07:49:34;;;;;;;4.68;1.55;;;;;;;;;;5008358;28;20136;-65
2022/10/26 07:52:01;;;;;;;3.33;1.58;;;;;;;;;;5009562;28;20136;-65
2022/10/26 07:54:28;;;;;;;6.03;1.90;;;;;;;;;;5004799;28;20172;-65
2022/10/26 07:56:55;;;;;;;4.07;1.38;;;;;;;;;;5009249;28;20304;-66
2022/10/26 07:59:22;;;;;;;7.38;1.60;;;;;;;;;;5004605;28;20072;-65
2022/10/26 08:01:48;;;;;;;4.80;1.52;;;;;;;;;;5009907;28;20072;-66
2022/10/26 08:04:18;;;;;;;5.97;1.50;;;;;;;;;;5003960;28;20076;-66
2022/10/26 08:06:47;;;;;;;4.20;1.73;;;;;;;;;;5009768;28;20057;-65
2022/10/26 08:09:14;;;;;;;;;;;;;;;;;;5003961;28;20056;-65
2022/10/26 08:11:41;;;;;;;3.35;1.60;;;;;;;;;;5009601;28;19932;-66
2022/10/26 08:14:08;;;;;;;3.22;1.58;;;;;;;;;;5003195;28;20048;-66
2022/10/26 08:16:34;;;;;;;6.20;1.85;;;;;;;;;;5009830;28;20053;-66
2022/10/26 08:19:01;;;;;;;7.50;2.03;;;;;;;;;;5004752;28;20049;-65
2022/10/26 08:21:29;;;;;;;3.55;1.65;;;;;;;;;;5009973;28;20081;-65
2022/10/26 08:23:55;;;;;;;7.47;2.10;;;;;;;;;;5009552;28;20117;-65
2022/10/26 08:26:23;;;;;;;6.50;1.98;;;;;;;;;;5000864;28;20132;-66
2022/10/26 08:28:49;;;;;;;4.90;1.90;;;;;;;;;;5006260;28;20050;-66
2022/10/26 08:31:16;;;;;;;7.75;1.90;;;;;;;;;;5003687;28;20148;-65
2022/10/26 08:33:43;;;;;;;7.55;1.90;;;;;;;;;;5009451;28;20125;-65
2022/10/26 08:36:11;;;;;;;5.93;1.88;;;;;;;;;;5003833;28;20053;-66
2022/10/26 08:38:39;;;;;;;5.78;1.70;;;;;;;;;;5008848;28;20073;-65
2022/10/26 08:41:06;;;;;;;6.38;1.85;;;;;;;;;;5015038;28;20061;-65
2022/10/26 08:43:38;;;;;;;4.18;1.88;;;;;;;;;;5029598;28;20111;-65
2022/10/26 08:46:09;;;;;;;3.58;1.63;;;;;;;;;;5013244;28;20076;-66
2022/10/26 08:48:37;;;;;;;3.33;1.63;;;;;;;;;;5008689;28;20179;-66
2022/10/26 08:51:04;;;;;;;;;;;;;;;;;;5000917;28;20061;-65
2022/10/26 08:53:33;;;;;;;5.50;2.00;;;;;;;;;;5022218;28;19929;-65
2022/10/26 08:56:06;;;;;;;6.35;2.17;;;;;;;;;;5027351;28;20056;-65
2022/10/26 08:58:36;;;;;;;3.47;1.65;;;;;;;;;;5044956;28;20056;-65
2022/10/26 09:01:04;;;;;;;7.30;1.77;;;;;;;;;;5035795;28;20049;-65
2022/10/26 09:03:31;;;;;;;7.43;2.38;;;;;;;;;;5025006;28;20055;-65
2022/10/26 09:06:04;;;;;;;6.65;2.25;;;;;;;;;;5020442;28;20064;-65
2022/10/26 09:08:34;;;;;;;7.15;2.63;;;;;;;;;;5027927;28;20048;-65
2022/10/26 09:11:06;;;;;;;6.00;2.53;;;;;;;;;;5022923;28;20049;-65
2022/10/26 09:13:39;;;;;;;9.13;2.70;;;;;;;;;;5035733;28;20061;-65
2022/10/26 09:16:08;;;;;;;4.82;2.47;;;;;;;;;;5022832;28;20119;-66
2022/10/26 09:18:46;;;;;;;6.60;2.70;;;;;;;;;;5024817;28;20060;-66
2022/10/26 09:21:27;;;;;;;5.60;2.70;;;;;;;;;;5040441;28;20062;-66
2022/10/26 09:23:58;;;;;;;5.60;2.30;;;;;;;;;;5028548;28;20159;-65
2022/10/26 09:26:37;;;;;;;8.05;2.50;;;;;;;;;;5045171;28;20049;-65
2022/10/26 09:29:05;;;;;;;8.65;2.30;;;;;;;;;;5008434;28;20175;-66
2022/10/26 09:31:33;;;;;;;4.20;2.22;;;;;;;;;;5024971;28;20057;-66
2022/10/26 09:34:00;;;;;;;10.17;2.30;;;;;;;;;;5057158;28;20052;-66
2022/10/26 09:36:28;;;;;;;5.00;2.10;;;;;;;;;;5030922;28;20053;-66
2022/10/26 09:38:58;;;;;;;12.13;2.07;;;;;;;;;;5022508;28;20056;-65
2022/10/26 09:41:26;;;;;;;5.18;1.83;;;;;;;;;;5028428;28;20322;-66
2022/10/26 09:43:57;;;;;;;7.93;1.90;;;;;;;;;;5019029;28;20045;-65
2022/10/26 09:46:27;;;;;;;8.63;2.30;;;;;;;;;;5025045;28;20072;-66
2022/10/26 09:48:54;;;;;;;7.30;2.55;;;;;;;;;;5022624;28;20068;-66
2022/10/26 09:51:22;;;;;;;6.18;2.40;;;;;;;;;;5028125;28;20052;-66
2022/10/26 09:53:48;;;;;;;5.15;2.60;;;;;;;;;;5029134;28;20064;-66
2022/10/26 09:56:16;;;;;;;11.00;2.33;;;;;;;;;;5045760;28;20064;-65
2022/10/26 09:58:44;;;;;;;5.05;2.15;;;;;;;;;;5033847;28;20146;-65
2022/10/26 10:01:22;;;;;;;4.85;2.38;;;;;;;;;;5028415;28;20049;-66
2022/10/26 10:04:08;;;;;;;5.72;2.40;;;;;;;;;;5025176;28;20117;-65
2022/10/26 10:06:36;;;;;;;6.60;2.38;;;;;;;;;;5042079;28;20074;-66
2022/10/26 10:09:09;;;;;;;4.72;2.20;;;;;;;;;;5038592;28;20055;-65
2022/10/26 10:11:40;;;;;;;8.57;2.22;;;;;;;;;;5028027;28;20144;-65
2022/10/26 10:14:08;;;;;;;5.30;2.05;;;;;;;;;;5025088;28;20075;-67
2022/10/26 10:16:36;;;;;;;6.40;1.92;;;;;;;;;;5043990;28;20053;-65
2022/10/26 10:19:03;;;;;;;9.80;2.60;;;;;;;;;;5036200;28;20048;-66
2022/10/26 10:21:34;;;;;;;6.55;2.53;;;;;;;;;;5044250;28;20064;-65
2022/10/26 10:24:01;;;;;;;8.13;2.17;;;;;;;;;;5038246;28;20122;-66
2022/10/26 10:26:27;;;;;;;6.30;2.40;;;;;;;;;;5027744;28;20060;-65
2022/10/26 10:28:58;;;;;;;6.50;2.55;;;;;;;;;;5024365;28;20076;-64
2022/10/26 10:31:28;;;;;;;9.20;2.55;;;;;;;;;;5009604;28;20144;-66
2022/10/26 10:33:56;;;;;;;5.90;2.58;;;;;;;;;;5011991;28;20115;-65
2022/10/26 10:36:23;;;;;;;6.97;2.40;;;;;;;;;;5029016;28;20067;-66
2022/10/26 10:38:51;;;;;;;6.00;2.42;;;;;;;;;;5031098;28;20060;-66
2022/10/26 10:41:19;;;;;;;4.72;2.08;;;;;;;;;;5038489;28;20142;-65
2022/10/26 10:43:47;;;;;;;5.45;2.17;;;;;;;;;;5048126;28;20084;-64
2022/10/26 10:46:18;;;;;;;7.05;2.50;;;;;;;;;;5043877;28;20056;-66
2022/10/26 10:48:46;;;;;;;7.40;2.00;;;;;;;;;;5051523;28;20057;-67
2022/10/26 10:51:12;;;;;;;;;;;;;;;;;;5045856;28;20122;-66
2022/10/26 10:53:47;;;;;;;4.38;2.05;;;;;;;;;;5051063;28;19928;-66
2022/10/26 10:56:27;;;;;;;12.80;2.30;;;;;;;;;;5018697;28;20045;-64
2022/10/26 10:59:00;;;;;;;6.50;2.25;;;;;;;;;;5010839;28;20093;-64
2022/10/26 11:01:30;;;;;;;6.57;2.38;;;;;;;;;;5005213;28;20050;-65
2022/10/26 11:04:02;;;;;;;5.78;2.38;;;;;;;;;;5011685;28;20111;-66
2022/10/26 11:06:29;;;;;;;7.32;2.40;;;;;;;;;;5012520;28;20126;-65
2022/10/26 11:09:01;;;;;;;5.03;2.20;;;;;;;;;;5028523;28;20053;-67
2022/10/26 11:11:32;;;;;;;7.32;2.67;;;;;;;;;;5014931;28;20050;-66
2022/10/26 11:14:01;;;;;;;6.97;2.05;;;;;;;;;;5030836;28;20059;-65
2022/10/26 11:16:30;;;;;;;8.90;2.22;;;;;;;;;;5023230;28;20083;-65
2022/10/26 11:18:59;;;;;;;12.82;2.13;;;;;;;;;;5012231;28;20149;-64
2022/10/26 11:21:29;;;;;;;5.60;2.03;;;;;;;;;;5005476;28;20045;-66
2022/10/26 11:24:09;;;;;;;7.85;2.15;;;;;;;;;;4994819;28;20144;-67
2022/10/26 11:26:39;;;;;;;4.85;1.73;;;;;;;;;;5005359;28;20097;-66
2022/10/26 11:29:11;;;;;;;6.60;2.38;;;;;;;;;;5008949;28;20076;-65
2022/10/26 11:31:39;;;;;;;3.47;1.73;;;;;;;;;;5002557;28;20061;-64
2022/10/26 11:34:12;;;;;;;5.35;2.28;;;;;;;;;;4990721;28;20085;-64
2022/10/26 11:36:41;;;;;;;4.47;1.95;;;;;;;;;;4999831;28;20050;-65
2022/10/26 11:39:14;;;;;;;6.65;1.90;;;;;;;;;;5007178;28;20057;-64
2022/10/26 11:41:43;;;;;;;7.63;2.30;;;;;;;;;;5008991;28;20065;-65
2022/10/26 11:44:12;;;;;;;7.00;2.58;;;;;;;;;;5008168;28;20053;-64
2022/10/26 11:46:40;;;;;;;8.25;2.72;;;;;;;;;;5010140;28;20057;-66
2022/10/26 11:49:11;;;;;;;7.88;2.08;;;;;;;;;;5021892;28;20060;-65
2022/10/26 11:51:39;;;;;;;8.65;2.20;;;;;;;;;;5030057;28;20115;-65
2022/10/26 11:54:09;;;;;;;9.75;3.08;;;;;;;;;;5009069;28;20049;-63
2022/10/26 11:56:40;;;;;;;7.72;2.70;;;;;;;;;;5028312;28;20057;-66
2022/10/26 11:59:07;;;;;;;4.35;2.25;;;;;;;;;;5022237;28;20053;-66
2022/10/26 12:01:33;;;;;;;7.68;2.50;;;;;;;;;;5029387;28;20057;-65
2022/10/26 12:04:01;;;;;;;7.38;2.60;;;;;;;;;;5023834;28;20056;-67
2022/10/26 12:06:30;;;;;;;7.70;2.47;;;;;;;;;;5027432;28;20053;-64
2022/10/26 12:08:59;;;;;;;7.85;3.05;;;;;;;;;;5023634;28;20080;-66
2022/10/26 12:11:33;;;;;;;7.15;3.50;;;;;;;;;;5029540;28;20072;-67
2022/10/26 12:14:05;;;;;;;7.07;2.95;;;;;;;;;;5019280;28;20059;-66
2022/10/26 12:16:43;;;;;;;10.65;3.92;;;;;;;;;;5029248;28;20108;-64
2022/10/26 12:19:15;;;;;;;12.27;3.60;;;;;;;;;;5022887;28;20053;-64
2022/10/26 12:21:43;;;;;;;5.40;2.65;;;;;;;;;;5029544;28;20060;-66
2022/10/26 12:24:25;;;;;;;7.30;3.80;;;;;;;;;;5023647;28;20045;-65
2022/10/26 12:26:53;;;;;;;10.45;2.92;;;;;;;;;;5029779;28;20053;-66
2022/10/26 12:29:49;;;;;;;5.07;2.80;;;;;;;;;;5017259;28;20052;-65
2022/10/26 12:32:36;;;;;;;10.48;3.05;;;;;;;;;;4946225;28;20074;-64
2022/10/26 12:35:28;;;;;;;8.40;3.65;;;;;;;;;;5005235;28;20103;-65
2022/10/26 12:37:55;;;;;;;8.63;3.50;;;;;;;;;;5028840;28;20144;-65
2022/10/26 12:40:38;;;;;;;6.82;3.50;;;;;;;;;;5021770;28;20075;-66
2022/10/26 12:43:19;;;;;;;7.82;4.00;;;;;;;;;;5027664;28;20065;-63
2022/10/26 12:46:07;;;;;;;5.57;2.92;;;;;;;;;;5009207;28;20243;-67
2022/10/26 12:48:39;;;;;;;10.57;3.15;;;;;;;;;;5009231;28;20042;-67
2022/10/26 12:51:21;;;;;;;9.88;4.05;;;;;;;;;;5020539;28;20041;-64
2022/10/26 12:53:52;;;;;;;5.65;3.20;;;;;;;;;;5026824;28;20057;-66
2022/10/26 12:56:24;;;;;;;7.00;3.45;;;;;;;;;;5020892;28;20119;-65
2022/10/26 12:59:08;;;;;;;7.18;3.30;;;;;;;;;;5025069;28;21346;-66
2022/10/26 13:01:54;;;;;;;9.30;3.58;;;;;;;;;;5033619;28;20057;-66
2022/10/26 13:04:26;;;;;;;6.28;2.92;;;;;;;;;;5043085;28;20057;-64
2022/10/26 13:06:59;;;;;;;8.32;3.17;;;;;;;;;;5037867;28;20053;-64
2022/10/26 13:09:31;;;;;;;7.18;3.47;;;;;;;;;;5038785;28;20066;-66
2022/10/26 13:11:59;;;;;;;6.75;3.53;;;;;;;;;;5033710;28;20060;-67
2022/10/26 13:14:28;;;;;;;6.38;3.08;;;;;;;;;;5025217;28;20053;-64
2022/10/26 13:16:55;;;;;;;8.40;3.63;;;;;;;;;;5020094;28;20103;-64
2022/10/26 13:19:26;;;;;;;6.88;3.13;;;;;;;;;;5025079;28;20061;-65
2022/10/26 13:21:53;;;;;;;9.07;3.22;;;;;;;;;;5030207;28;20057;-63
2022/10/26 13:24:21;;;;;;;8.25;3.65;;;;;;;;;;5045393;28;20052;-65
2022/10/26 13:27:02;;;;;;;7.15;3.03;;;;;;;;;;5031394;28;20049;-64
2022/10/26 13:29:31;;;;;;;8.05;3.35;;;;;;;;;;5023853;28;20049;-67
2022/10/26 13:31:59;;;;;;;5.90;2.83;;;;;;;;;;5027200;28;20057;-67
2022/10/26 13:34:27;;;;;;;11.45;3.38;;;;;;;;;;5045231;28;20140;-68
2022/10/26 13:36:59;;;;;;;6.82;2.92;;;;;;;;;;5026463;28;20057;-66
2022/10/26 13:39:28;;;;;;;8.00;2.85;;;;;;;;;;5044772;28;20057;-65
2022/10/26 13:41:55;;;;;;;7.15;3.53;;;;;;;;;;5035533;28;20056;-68
2022/10/26 13:44:23;;;;;;;8.40;3.80;;;;;;;;;;5024597;28;20061;-66
2022/10/26 13:46:53;;;;;;;7.90;3.67;;;;;;;;;;5020304;28;20049;-64
2022/10/26 13:49:23;;;;;;;6.50;3.30;;;;;;;;;;5042939;28;20056;-64
2022/10/26 13:51:51;;;;;;;10.73;3.53;;;;;;;;;;5039296;28;20056;-67
2022/10/26 13:54:23;;;;;;;6.47;3.53;;;;;;;;;;5004843;28;20056;-66
2022/10/26 13:56:58;;;;;;;9.45;3.42;;;;;;;;;;5004528;28;20050;-63
2022/10/26 13:59:26;;;;;;;6.95;3.70;;;;;;;;;;5005815;28;20057;-66
2022/10/26 14:02:06;;;;;;;6.80;3.50;;;;;;;;;;5024652;28;20056;-66
2022/10/26 14:04:33;;;;;;;8.30;3.30;;;;;;;;;;5014187;28;20058;-64
2022/10/26 14:07:00;;;;;;;9.93;3.45;;;;;;;;;;5006054;28;20079;-66
2022/10/26 14:09:28;;;;;;;8.35;3.30;;;;;;;;;;5002879;28;20053;-66
2022/10/26 14:11:57;;;;;;;6.70;3.60;;;;;;;;;;5008239;28;20068;-66
2022/10/26 14:14:25;;;;;;;7.55;3.28;;;;;;;;;;5000935;28;20057;-66
2022/10/26 14:16:51;;;;;;;;;;;;;;;;;;5007601;28;20057;-63
2022/10/26 14:19:21;;;;;;;6.32;2.75;;;;;;;;;;5002241;28;19925;-65
2022/10/26 14:21:49;;;;;;;6.40;2.63;;;;;;;;;;5007956;28;20107;-66
2022/10/26 14:24:21;;;;;;;6.03;2.60;;;;;;;;;;5002116;28;20057;-63
2022/10/26 14:26:47;;;;;;;5.72;2.78;;;;;;;;;;5008033;28;20054;-66
2022/10/26 14:29:15;;;;;;;6.68;2.53;;;;;;;;;;4994520;28;20179;-63
2022/10/26 14:31:42;;;;;;;7.83;2.60;;;;;;;;;;4988825;28;20108;-64
2022/10/26 14:34:10;;;;;;;8.25;2.60;;;;;;;;;;4989112;28;20045;-63
2022/10/26 14:36:40;;;;;;;4.55;2.00;;;;;;;;;;5007866;28;20056;-66
2022/10/26 14:39:09;;;;;;;7.00;2.33;;;;;;;;;;4996703;28;20053;-64
2022/10/26 14:41:35;;;;;;;;;;;;;;;;;;5004870;28;20049;-63
2022/10/26 14:44:02;;;;;;;4.43;2.03;;;;;;;;;;5000952;28;19943;-67
2022/10/26 14:46:33;;;;;;;5.10;2.30;;;;;;;;;;5007918;28;20053;-65
2022/10/26 14:49:00;;;;;;;4.30;1.88;;;;;;;;;;5004527;28;20084;-63
2022/10/26 14:52:05;;;;;;;6.57;2.38;;;;;;;;;;5005702;28;20053;-65
2022/10/26 14:54:32;;;;;;;9.93;2.20;;;;;;;;;;4966470;28;20144;-63
2022/10/26 14:57:07;;;;;;;8.27;1.95;;;;;;;;;;5009851;28;20072;-64
2022/10/26 14:59:34;;;;;;;4.20;1.88;;;;;;;;;;5018214;28;20053;-63